TimeEST,TemperatureF,Dew PointF,Humidity,Sea Level PressureIn,VisibilityMPH,Wind Direction,Wind SpeedMPH,Gust SpeedMPH,PrecipitationIn,Events,Conditions,WindDirDegrees,DateUTC
12:35 AM,42.8,39.2,87,30.13,0.2,Calm,Calm,-,N/A,,Overcast,0,2013-01-13 05:35:00
12:55 AM,42.8,39.2,87,30.13,0.2,Calm,Calm,-,N/A,,Overcast,0,2013-01-13 05:55:00
1:15 AM,42.8,39.2,87,30.13,0.5,Calm,Calm,-,N/A,,Overcast,0,2013-01-13 06:15:00
1:35 AM,42.8,39.2,87,30.13,0.5,SSW,3.5,-,N/A,,Overcast,210,2013-01-13 06:35:00
1:55 AM,42.8,39.2,87,30.13,0.2,SSW,3.5,-,N/A,,Overcast,210,2013-01-13 06:55:00
2:15 AM,42.8,39.2,87,30.14,0.5,SSW,3.5,-,N/A,,Overcast,200,2013-01-13 07:15:00
2:55 AM,42.8,39.2,87,30.12,0.2,SSW,3.5,-,N/A,,Overcast,210,2013-01-13 07:55:00
3:15 AM,42.8,39.2,87,30.12,0.5,Calm,Calm,-,N/A,,Overcast,0,2013-01-13 08:15:00
3:35 AM,42.8,39.2,87,30.12,0.2,SW,5.8,-,N/A,,Overcast,230,2013-01-13 08:35:00
3:55 AM,42.8,39.2,87,30.11,0.5,SW,4.6,-,N/A,,Overcast,230,2013-01-13 08:55:00
4:15 AM,42.8,39.2,87,30.11,0.5,Calm,Calm,-,N/A,,Overcast,0,2013-01-13 09:15:00
4:35 AM,42.8,39.2,87,30.11,1.0,Calm,Calm,-,N/A,,Overcast,0,2013-01-13 09:35:00
5:15 AM,42.8,39.2,87,30.08,0.8,SE,4.6,-,N/A,,Overcast,140,2013-01-13 10:15:00
5:35 AM,42.8,39.2,87,30.09,0.8,Calm,Calm,-,N/A,,Overcast,0,2013-01-13 10:35:00
5:55 AM,42.8,39.2,87,30.09,0.5,Calm,Calm,-,N/A,,Overcast,0,2013-01-13 10:55:00
6:15 AM,42.8,39.2,87,30.11,0.5,Calm,Calm,-,N/A,,Overcast,0,2013-01-13 11:15:00
6:35 AM,42.8,39.2,87,30.10,0.2,Calm,Calm,-,N/A,,Overcast,0,2013-01-13 11:35:00
6:55 AM,42.8,39.2,87,30.11,0.5,Calm,Calm,-,N/A,,Overcast,0,2013-01-13 11:55:00
7:35 AM,42.8,39.2,87,30.12,0.8,SSW,3.5,-,N/A,,Overcast,200,2013-01-13 12:35:00
7:55 AM,42.8,39.2,87,30.13,0.5,Calm,Calm,-,N/A,,Overcast,0,2013-01-13 12:55:00
8:15 AM,42.8,39.2,87,30.14,0.2,South,3.5,-,N/A,,Overcast,190,2013-01-13 13:15:00
8:35 AM,42.8,41.0,93,30.14,0.2,Calm,Calm,-,N/A,,Overcast,0,2013-01-13 13:35:00
8:55 AM,42.8,41.0,93,30.14,0.2,South,3.5,-,N/A,,Overcast,190,2013-01-13 13:55:00
9:15 AM,42.8,41.0,93,30.13,0.2,South,4.6,-,N/A,,Overcast,190,2013-01-13 14:15:00
9:35 AM,44.6,41.0,87,30.13,0.5,South,3.5,-,N/A,,Overcast,190,2013-01-13 14:35:00
9:55 AM,44.6,42.8,93,30.14,1.0,SSW,3.5,-,N/A,,Overcast,200,2013-01-13 14:55:00
10:15 AM,44.6,42.8,93,30.14,0.8,SSW,4.6,-,N/A,,Overcast,210,2013-01-13 15:15:00
10:35 AM,44.6,42.8,93,30.14,0.8,SSW,3.5,-,N/A,,Overcast,200,2013-01-13 15:35:00
10:55 AM,44.6,42.8,93,30.13,1.0,Calm,Calm,-,N/A,,Overcast,0,2013-01-13 15:55:00
11:15 AM,46.4,42.8,87,30.12,1.8,SSW,3.5,-,N/A,,Overcast,200,2013-01-13 16:15:00
11:35 AM,46.4,44.6,93,30.11,2.0,SSW,5.8,-,N/A,,Overcast,200,2013-01-13 16:35:00
11:55 AM,46.4,44.6,93,30.11,2.5,SSW,4.6,-,N/A,,Overcast,200,2013-01-13 16:55:00
12:35 PM,48.2,46.4,93,30.10,10.0,SW,5.8,-,N/A,,Overcast,220,2013-01-13 17:35:00
12:55 PM,48.2,46.4,93,30.09,10.0,SW,4.6,-,N/A,,Overcast,220,2013-01-13 17:55:00
1:15 PM,48.2,46.4,93,30.08,10.0,SSW,4.6,-,N/A,,Overcast,210,2013-01-13 18:15:00
1:35 PM,50.0,46.4,87,30.08,10.0,SSW,4.6,-,N/A,,Overcast,210,2013-01-13 18:35:00
1:55 PM,50.0,46.4,87,30.08,10.0,SSW,8.1,-,N/A,,Overcast,200,2013-01-13 18:55:00
2:15 PM,51.8,46.4,82,30.07,10.0,SSW,5.8,-,N/A,,Mostly Cloudy,210,2013-01-13 19:15:00
2:55 PM,51.8,46.4,82,30.06,10.0,SSW,6.9,-,N/A,,Partly Cloudy,200,2013-01-13 19:55:00
3:15 PM,51.8,46.4,82,30.06,10.0,SSW,5.8,-,N/A,,Clear,200,2013-01-13 20:15:00
3:35 PM,51.8,46.4,82,30.06,10.0,SSW,3.5,-,N/A,,Clear,200,2013-01-13 20:35:00
3:55 PM,51.8,46.4,82,30.05,10.0,South,9.2,-,N/A,,Scattered Clouds,190,2013-01-13 20:55:00
4:15 PM,50.0,46.4,87,30.04,10.0,South,4.6,-,N/A,,Mostly Cloudy,170,2013-01-13 21:15:00
4:35 PM,50.0,46.4,87,30.04,10.0,SSW,4.6,-,N/A,,Overcast,200,2013-01-13 21:35:00
4:55 PM,50.0,46.4,87,30.04,10.0,SSW,5.8,-,N/A,,Overcast,210,2013-01-13 21:55:00
5:15 PM,50.0,46.4,87,30.04,10.0,SSW,4.6,-,N/A,,Overcast,210,2013-01-13 22:15:00
5:35 PM,50.0,44.6,82,30.05,10.0,SSW,5.8,-,N/A,,Overcast,210,2013-01-13 22:35:00
5:55 PM,48.2,44.6,87,30.04,10.0,SSW,8.1,-,N/A,,Overcast,200,2013-01-13 22:55:00
6:15 PM,48.2,46.4,93,30.03,10.0,SSW,6.9,-,N/A,,Overcast,200,2013-01-13 23:15:00
6:35 PM,50.0,46.4,87,30.03,10.0,SSW,5.8,-,N/A,,Overcast,210,2013-01-13 23:35:00
6:55 PM,50.0,46.4,87,30.02,10.0,SSW,6.9,-,N/A,,Overcast,200,2013-01-13 23:55:00
7:15 PM,50.0,46.4,87,30.03,10.0,SSW,8.1,-,N/A,,Overcast,210,2013-01-14 00:15:00
7:55 PM,50.0,46.4,87,30.03,10.0,SSW,6.9,-,N/A,,Overcast,210,2013-01-14 00:55:00
8:15 PM,50.0,46.4,87,30.03,10.0,SW,5.8,-,N/A,,Overcast,220,2013-01-14 01:15:00
8:35 PM,50.0,46.4,87,30.03,10.0,SSW,6.9,-,N/A,,Overcast,210,2013-01-14 01:35:00
8:55 PM,51.8,46.4,82,30.03,10.0,SW,4.6,-,N/A,,Overcast,220,2013-01-14 01:55:00
9:15 PM,51.8,46.4,82,30.03,10.0,SW,9.2,-,N/A,,Overcast,220,2013-01-14 02:15:00
9:35 PM,50.0,46.4,87,30.03,10.0,SW,9.2,-,N/A,,Overcast,220,2013-01-14 02:35:00
9:55 PM,50.0,46.4,87,30.01,10.0,SW,9.2,17.3,N/A,,Overcast,220,2013-01-14 02:55:00
10:15 PM,50.0,46.4,87,30.02,10.0,SW,9.2,18.4,N/A,,Overcast,220,2013-01-14 03:15:00
10:35 PM,50.0,46.4,87,30.01,10.0,SW,10.4,18.4,N/A,,Overcast,220,2013-01-14 03:35:00
10:55 PM,50.0,46.4,87,30.02,8.0,SW,8.1,-,N/A,,Overcast,220,2013-01-14 03:55:00
11:15 PM,50.0,46.4,87,30.02,5.0,SW,6.9,16.1,N/A,,Overcast,220,2013-01-14 04:15:00
11:35 PM,48.2,46.4,93,30.01,5.0,SW,6.9,-,N/A,,Overcast,220,2013-01-14 04:35:00
11:55 PM,48.2,46.4,93,30.01,2.5,SSW,6.9,-,N/A,,Overcast,210,2013-01-14 04:55:00